Terminal Aerodrome Forecast
Issued by NWS

Home | Current Version | Previous Version | Text Only | Print | Product List | Glossary On
Versions: 1 2 3 4 5 6 7 8 9 10 11 12 13 14 15 16 17 18 19 20
323
FTUS46 KMTR 132007 AAB
TAFMRY
TAF AMD
KMRY 132007Z 1320/1418 30004KT P6SM FEW003
      TEMPO 1320/1321 2SM BR OVC004
     FM132100 31007KT P6SM SKC
     FM140200 28005KT P6SM SKC
     FM140400 25004KT 6SM BR SKC
     FM140700 VRB03KT 1/4SM FG VV002
     FM141600 32004KT 6SM HZ FEW002=

USA.gov is the U.S. government's official web portal to all federal, state and local government web resources and services.